createdAt,value
2023-04-30T00:00:01.652Z,99957.06
2023-04-30T00:03:12.994Z,99961.50
2023-04-30T00:05:44.429Z,99957.41
2023-04-30T00:08:24.990Z,99960.91
2023-04-30T00:11:11.107Z,99958.50
2023-04-30T00:14:11.167Z,99961.84
2023-04-30T00:16:57.745Z,99961.66
2023-04-30T00:19:56.135Z,99966.75
2023-04-30T00:22:42.407Z,99962.84
2023-04-30T00:25:35.856Z,99977.41
2023-04-30T00:28:31.421Z,99977.41
2023-04-30T00:31:01.942Z,99979.06
2023-04-30T00:33:48.199Z,99979.06
2023-04-30T00:36:36.154Z,99986.84
2023-04-30T00:39:12.957Z,99987.59
2023-04-30T00:41:44.785Z,99986.69
2023-04-30T00:44:43.277Z,99983.16
2023-04-30T00:47:30.084Z,99979.81
2023-04-30T00:50:16.831Z,99983.53
2023-04-30T00:53:10.099Z,99982.94
2023-04-30T00:55:42.855Z,99983.88
2023-04-30T00:58:34.961Z,99984.97
2023-04-30T01:01:18.234Z,99980.78
2023-04-30T01:04:04.888Z,99988.47
2023-04-30T01:06:58.553Z,99985.78
2023-04-30T01:09:40.028Z,99985.03
2023-04-30T01:12:39.667Z,99979.09
2023-04-30T01:15:40.504Z,99986.81
2023-04-30T01:18:23.202Z,99985.97
2023-04-30T01:21:07.774Z,99988.66
2023-04-30T01:24:28.050Z,99982.72
2023-04-30T01:27:30.420Z,99980.19
2023-04-30T01:30:37.432Z,99983.66
2023-04-30T01:33:19.441Z,99989.66
2023-04-30T01:36:28.366Z,99988.09
2023-04-30T01:39:46.286Z,99983.81
2023-04-30T01:42:44.130Z,99981.31
2023-04-30T01:46:23.797Z,99983.06
2023-04-30T01:49:14.198Z,99983.81
2023-04-30T01:52:04.342Z,99977.78
2023-04-30T01:54:51.575Z,99983.81
2023-04-30T01:57:34.105Z,99980.44
2023-04-30T02:00:21.749Z,99980.63
2023-04-30T02:03:09.314Z,99986.81
2023-04-30T02:05:40.915Z,99981.81
2023-04-30T02:08:36.592Z,99987.97
2023-04-30T02:11:16.973Z,99977.09
2023-04-30T02:14:06.591Z,99992.59
2023-04-30T02:16:40.046Z,99995.19
2023-04-30T02:19:41.704Z,99988.59
2023-04-30T02:22:40.107Z,99991.25
2023-04-30T02:25:20.544Z,99986.00
2023-04-30T02:28:05.099Z,99987.72
2023-04-30T02:30:44.402Z,99983.47
2023-04-30T02:33:16.332Z,99989.50
2023-04-30T02:36:11.391Z,99978.28
2023-04-30T02:38:56.489Z,99984.50
2023-04-30T02:41:35.341Z,99979.63
2023-04-30T02:44:09.194Z,99983.50
2023-04-30T02:46:44.270Z,99985.25
2023-04-30T02:49:29.717Z,99980.16
2023-04-30T02:52:16.139Z,99973.00
2023-04-30T02:54:54.611Z,99978.06
2023-04-30T02:57:50.119Z,99984.91
2023-04-30T03:00:20.874Z,99976.22
2023-04-30T03:03:12.680Z,99983.25
2023-04-30T03:05:44.014Z,99975.72
2023-04-30T03:08:35.753Z,99992.34
2023-04-30T03:11:23.434Z,99986.66
2023-04-30T03:13:54.182Z,99992.84
2023-04-30T03:16:38.208Z,99987.00
2023-04-30T03:19:08.778Z,99997.44
2023-04-30T03:21:43.781Z,99992.34
2023-04-30T03:24:17.260Z,99988.94
2023-04-30T03:26:53.490Z,99992.34
2023-04-30T03:29:38.717Z,99989.75
2023-04-30T03:32:12.964Z,99989.00
2023-04-30T03:34:51.275Z,99987.31
2023-04-30T03:37:24.273Z,99986.47
2023-04-30T03:40:14.581Z,99986.41
2023-04-30T03:42:46.011Z,99982.00
2023-04-30T03:45:19.085Z,99981.06
2023-04-30T03:47:55.039Z,99979.41
2023-04-30T03:50:53.644Z,99981.22
2023-04-30T03:53:40.148Z,99981.22
2023-04-30T03:56:31.186Z,99982.13
2023-04-30T03:59:04.338Z,99989.19
2023-04-30T04:01:44.695Z,99989.50
2023-04-30T04:04:40.708Z,99990.75
2023-04-30T04:07:29.853Z,99988.31
2023-04-30T04:10:04.204Z,99986.53
2023-04-30T04:12:38.043Z,99989.13
2023-04-30T04:15:22.473Z,99982.97
2023-04-30T04:18:07.515Z,99983.13
2023-04-30T04:20:50.257Z,99985.66
2023-04-30T04:23:35.181Z,99981.28
2023-04-30T04:26:15.274Z,99989.06
2023-04-30T04:29:12.654Z,99992.72
2023-04-30T04:31:56.571Z,99988.47
2023-04-30T04:34:36.805Z,99997.91
2023-04-30T04:37:16.894Z,99992.66
2023-04-30T04:39:47.627Z,99994.41
2023-04-30T04:42:20.093Z,100001.25
2023-04-30T04:44:55.538Z,100002.03
2023-04-30T04:47:39.605Z,100004.53
2023-04-30T04:50:19.315Z,100010.53
2023-04-30T04:52:52.310Z,100009.03
2023-04-30T04:55:40.090Z,100011.63
2023-04-30T04:58:21.723Z,100008.78
2023-04-30T05:01:08.032Z,100008.66
2023-04-30T05:03:43.981Z,100003.28
2023-04-30T05:06:15.258Z,100001.63
2023-04-30T05:09:08.914Z,100003.53
2023-04-30T05:11:51.392Z,100005.28
2023-04-30T05:14:43.701Z,100007.97
2023-04-30T05:17:34.526Z,100001.44
2023-04-30T05:20:15.757Z,100009.34
2023-04-30T05:22:52.899Z,100011.03
2023-04-30T05:25:39.146Z,100013.47
2023-04-30T05:28:27.051Z,100009.84
2023-04-30T05:31:01.473Z,100010.88
2023-04-30T05:33:57.481Z,100004.09
2023-04-30T05:36:30.992Z,100008.38
2023-04-30T05:39:33.567Z,100009.84
2023-04-30T05:42:15.249Z,100015.56
2023-04-30T05:44:54.282Z,100014.47
2023-04-30T05:47:25.052Z,100005.56
2023-04-30T05:50:13.223Z,100005.88
2023-04-30T05:52:55.014Z,100008.97
2023-04-30T05:55:35.373Z,100004.38
2023-04-30T05:58:10.123Z,100007.41
2023-04-30T06:01:06.629Z,100006.00
2023-04-30T06:03:47.148Z,100005.25
2023-04-30T06:06:29.671Z,100013.16
2023-04-30T06:09:00.543Z,100008.44
2023-04-30T06:11:42.700Z,100005.22
2023-04-30T06:14:23.030Z,100009.97
2023-04-30T06:16:59.364Z,100000.00
2023-04-30T06:19:51.229Z,100005.19
2023-04-30T06:22:43.468Z,100004.84
2023-04-30T06:25:33.712Z,100008.03
2023-04-30T06:28:16.755Z,100009.19
2023-04-30T06:30:50.431Z,100006.69
2023-04-30T06:33:30.521Z,100001.88
2023-04-30T06:36:26.884Z,100008.88
2023-04-30T06:39:35.817Z,100003.88
2023-04-30T06:42:19.528Z,100004.44
2023-04-30T06:44:50.219Z,100008.94
2023-04-30T06:47:20.707Z,100003.00
2023-04-30T06:49:56.585Z,99998.53
2023-04-30T06:52:50.072Z,100003.75
2023-04-30T06:55:41.841Z,99995.28
2023-04-30T06:58:22.481Z,99999.66
2023-04-30T07:00:56.049Z,99992.03
2023-04-30T07:03:49.706Z,100004.16
2023-04-30T07:06:46.279Z,100002.34
2023-04-30T07:09:30.380Z,99996.59
2023-04-30T07:12:33.809Z,99996.47
2023-04-30T07:15:05.518Z,99998.03
2023-04-30T07:17:45.856Z,99990.34
2023-04-30T07:20:19.852Z,99982.09
2023-04-30T07:22:58.887Z,99994.91
2023-04-30T07:25:31.302Z,99995.53
2023-04-30T07:28:16.646Z,99996.91
2023-04-30T07:31:04.747Z,99999.16
2023-04-30T07:33:37.882Z,99996.47
2023-04-30T07:36:21.616Z,99992.44
2023-04-30T07:38:52.723Z,99991.56
2023-04-30T07:41:34.494Z,99992.81
2023-04-30T07:44:33.750Z,99994.41
2023-04-30T07:47:09.996Z,99996.41
2023-04-30T07:49:42.151Z,99985.69
2023-04-30T07:52:35.877Z,99986.38
2023-04-30T07:55:09.024Z,99985.13
2023-04-30T07:57:47.201Z,99984.06
2023-04-30T08:00:27.244Z,99990.75
2023-04-30T08:03:03.804Z,99988.66
2023-04-30T08:06:01.380Z,99988.09
2023-04-30T08:08:38.508Z,99993.69
2023-04-30T08:11:30.617Z,99993.09
2023-04-30T08:14:07.310Z,99988.91
2023-04-30T08:17:03.572Z,99993.53
2023-04-30T08:20:01.189Z,99995.41
2023-04-30T08:22:34.344Z,99986.84
2023-04-30T08:25:16.029Z,99989.66
2023-04-30T08:27:59.031Z,99991.00
2023-04-30T08:30:37.377Z,99992.47
2023-04-30T08:33:33.674Z,99988.06
2023-04-30T08:36:18.482Z,99986.19
2023-04-30T08:38:50.870Z,99991.09
2023-04-30T08:41:35.864Z,99981.28
2023-04-30T08:44:23.982Z,99989.13
2023-04-30T08:47:06.269Z,99983.03
2023-04-30T08:50:00.663Z,99985.31
2023-04-30T08:52:50.368Z,99982.78
2023-04-30T08:55:27.786Z,99978.25
2023-04-30T08:58:13.758Z,99985.66
2023-04-30T09:00:51.407Z,99981.59
2023-04-30T09:03:39.924Z,99983.44
2023-04-30T09:07:01.227Z,99976.63
2023-04-30T09:09:41.099Z,99978.38
2023-04-30T09:12:31.629Z,99971.59
2023-04-30T09:15:22.697Z,99973.66
2023-04-30T09:18:12.901Z,99978.19
2023-04-30T09:21:13.583Z,99969.84
2023-04-30T09:24:04.418Z,99974.38
2023-04-30T09:26:44.793Z,99977.47
2023-04-30T09:29:17.370Z,99973.19
2023-04-30T09:32:12.619Z,99972.00
2023-04-30T09:35:18.664Z,99973.53
2023-04-30T09:37:58.698Z,99971.97
2023-04-30T09:40:45.531Z,99980.41
2023-04-30T09:43:31.927Z,99978.75
2023-04-30T09:46:10.505Z,99972.69
2023-04-30T09:49:31.176Z,99969.97
2023-04-30T09:52:13.427Z,99972.34
2023-04-30T09:54:56.656Z,99960.59
2023-04-30T09:57:36.736Z,99966.53
2023-04-30T10:00:12.323Z,99955.59
2023-04-30T10:02:49.625Z,99951.19
2023-04-30T10:05:37.012Z,99942.13
2023-04-30T10:08:20.233Z,99959.63
2023-04-30T10:11:17.841Z,99949.75
2023-04-30T10:14:22.520Z,99950.72
2023-04-30T10:17:08.732Z,99939.63
2023-04-30T10:19:48.330Z,99939.41
2023-04-30T10:22:41.595Z,99933.44
2023-04-30T10:25:35.824Z,99947.66
2023-04-30T10:28:18.197Z,99937.59
2023-04-30T10:31:52.114Z,99942.41
2023-04-30T10:34:44.556Z,99938.69
2023-04-30T10:37:43.012Z,99930.19
2023-04-30T10:40:42.414Z,99926.94
2023-04-30T10:43:14.925Z,99927.81
2023-04-30T10:46:13.059Z,99919.88
2023-04-30T10:49:28.033Z,99916.94
2023-04-30T10:52:17.417Z,99911.44
2023-04-30T10:55:00.025Z,99902.59
2023-04-30T10:57:35.716Z,99900.03
2023-04-30T11:00:27.905Z,99899.81
2023-04-30T11:03:23.996Z,99908.50
2023-04-30T11:06:20.221Z,99902.31
2023-04-30T11:09:14.716Z,99893.94
2023-04-30T11:11:57.348Z,99894.34
2023-04-30T11:14:47.457Z,99883.16
2023-04-30T11:17:44.852Z,99893.25
2023-04-30T11:20:25.554Z,99887.84
2023-04-30T11:23:28.224Z,99885.78
2023-04-30T11:26:12.838Z,99890.22
2023-04-30T11:29:00.817Z,99889.91
2023-04-30T11:31:49.416Z,99881.34
2023-04-30T11:34:36.814Z,99891.84
2023-04-30T11:37:28.201Z,99887.97
2023-04-30T11:40:16.913Z,99883.84
2023-04-30T11:43:10.395Z,99879.28
2023-04-30T11:45:53.975Z,99882.75
2023-04-30T11:48:40.260Z,99864.88
2023-04-30T11:51:30.061Z,99858.91
2023-04-30T11:54:17.144Z,99866.69
2023-04-30T11:57:04.347Z,99865.69
2023-04-30T11:59:49.676Z,99862.66
2023-04-30T12:02:42.053Z,99860.56
2023-04-30T12:05:20.589Z,99857.22
2023-04-30T12:08:11.243Z,99859.97
2023-04-30T12:10:42.632Z,99864.38
2023-04-30T12:13:35.474Z,99843.81
2023-04-30T12:16:17.683Z,99853.59
2023-04-30T12:18:53.143Z,99845.22
2023-04-30T12:21:40.385Z,99851.28
2023-04-30T12:24:31.290Z,99850.03
2023-04-30T12:27:19.355Z,99843.44
2023-04-30T12:29:56.811Z,99842.94
2023-04-30T12:32:40.660Z,99842.94
2023-04-30T12:35:22.082Z,99846.81
2023-04-30T12:38:27.295Z,99845.38
2023-04-30T12:41:06.078Z,99837.75
2023-04-30T12:44:29.718Z,99831.00
2023-04-30T12:47:31.916Z,99830.03
2023-04-30T12:50:15.059Z,99826.78
2023-04-30T12:52:49.550Z,99829.53
2023-04-30T12:55:38.575Z,99816.16
2023-04-30T12:58:20.568Z,99823.47
2023-04-30T13:01:10.021Z,99817.53
2023-04-30T13:04:00.271Z,99807.94
2023-04-30T13:06:55.777Z,99808.25
2023-04-30T13:09:45.479Z,99807.56
2023-04-30T13:12:19.867Z,99797.97
2023-04-30T13:15:03.766Z,99793.81
2023-04-30T13:17:49.828Z,99801.44
2023-04-30T13:20:48.159Z,99794.03
2023-04-30T13:23:44.545Z,99774.50
2023-04-30T13:26:37.045Z,99776.44
2023-04-30T13:29:43.030Z,99767.91
2023-04-30T13:32:17.386Z,99768.22
2023-04-30T13:34:56.349Z,99756.94
2023-04-30T13:37:42.168Z,99756.16
2023-04-30T13:40:14.406Z,99756.09
2023-04-30T13:42:55.324Z,99752.00
2023-04-30T13:45:26.031Z,99749.16
2023-04-30T13:48:08.312Z,99750.63
2023-04-30T13:50:48.845Z,99756.47
2023-04-30T13:53:57.171Z,99745.72
2023-04-30T13:56:56.189Z,99746.38
2023-04-30T13:59:41.164Z,99746.72
2023-04-30T14:02:32.449Z,99748.16
2023-04-30T14:05:20.472Z,99756.00
2023-04-30T14:08:02.521Z,99749.44
2023-04-30T14:10:51.638Z,99746.72
2023-04-30T14:13:41.270Z,99747.53
2023-04-30T14:16:23.368Z,99739.53
2023-04-30T14:18:58.258Z,99741.06
2023-04-30T14:21:36.387Z,99730.09
2023-04-30T14:24:20.774Z,99730.00
2023-04-30T14:27:10.852Z,99721.00
2023-04-30T14:29:51.906Z,99726.44
2023-04-30T14:32:33.905Z,99725.16
2023-04-30T14:35:29.544Z,99719.13
2023-04-30T14:37:59.685Z,99722.03
2023-04-30T14:40:58.341Z,99722.22
2023-04-30T14:43:59.898Z,99726.13
2023-04-30T14:46:54.886Z,99718.31
2023-04-30T14:49:35.489Z,99711.13
2023-04-30T14:52:18.590Z,99717.44
2023-04-30T14:55:04.704Z,99701.38
2023-04-30T14:57:40.149Z,99704.28
2023-04-30T15:00:34.003Z,99701.75
2023-04-30T15:03:05.667Z,99687.72
2023-04-30T15:05:38.641Z,99691.34
2023-04-30T15:08:29.354Z,99685.88
2023-04-30T15:11:26.155Z,99685.31
2023-04-30T15:14:19.914Z,99690.69
2023-04-30T15:17:17.623Z,99683.75
2023-04-30T15:19:57.165Z,99683.94
2023-04-30T15:22:39.809Z,99690.47
2023-04-30T15:25:20.467Z,99682.28
2023-04-30T15:27:56.642Z,99682.13
2023-04-30T15:30:34.038Z,99672.91
2023-04-30T15:33:41.373Z,99668.19
2023-04-30T15:36:41.420Z,99666.94
2023-04-30T15:39:13.491Z,99679.63
2023-04-30T15:41:46.416Z,99675.53
2023-04-30T15:44:40.508Z,99676.38
2023-04-30T15:47:28.500Z,99673.88
2023-04-30T15:50:35.785Z,99663.22
2023-04-30T15:53:12.682Z,99675.53
2023-04-30T15:55:55.370Z,99668.97
2023-04-30T15:58:35.914Z,99657.28
2023-04-30T16:01:21.886Z,99661.16
2023-04-30T16:03:55.805Z,99661.19
2023-04-30T16:06:42.148Z,99668.16
2023-04-30T16:09:20.176Z,99666.44
2023-04-30T16:12:07.534Z,99649.03
2023-04-30T16:14:41.469Z,99656.63
2023-04-30T16:17:36.765Z,99648.22
2023-04-30T16:20:31.893Z,99637.84
2023-04-30T16:23:13.904Z,99633.56
2023-04-30T16:26:15.140Z,99627.81
2023-04-30T16:28:48.792Z,99639.09
2023-04-30T16:31:52.788Z,99626.22
2023-04-30T16:34:37.702Z,99625.72
2023-04-30T16:37:20.019Z,99626.81
2023-04-30T16:40:08.589Z,99617.88
2023-04-30T16:42:44.972Z,99613.34
2023-04-30T16:45:39.406Z,99613.63
2023-04-30T16:48:22.108Z,99610.38
2023-04-30T16:51:07.713Z,99612.00
2023-04-30T16:53:37.198Z,99615.47
2023-04-30T16:56:36.409Z,99613.91
2023-04-30T16:59:08.621Z,99605.38
2023-04-30T17:02:01.355Z,99608.69
2023-04-30T17:04:34.358Z,99595.31
2023-04-30T17:07:26.292Z,99600.31
2023-04-30T17:10:02.654Z,99599.50
2023-04-30T17:13:13.997Z,99591.69
2023-04-30T17:15:59.991Z,99588.59
2023-04-30T17:18:42.412Z,99593.59
2023-04-30T17:21:13.317Z,99599.13
2023-04-30T17:24:05.591Z,99595.75
2023-04-30T17:26:41.849Z,99595.09
2023-04-30T17:29:22.433Z,99594.81
2023-04-30T17:32:18.099Z,99603.66
2023-04-30T17:34:49.544Z,99591.84
2023-04-30T17:37:42.405Z,99604.53
2023-04-30T17:40:38.452Z,99610.84
2023-04-30T17:43:17.760Z,99600.47
2023-04-30T17:46:11.027Z,99601.75
2023-04-30T17:49:01.909Z,99610.03
2023-04-30T17:51:43.254Z,99607.44
2023-04-30T17:54:20.468Z,99625.97
2023-04-30T17:57:03.422Z,99612.50
2023-04-30T17:59:56.163Z,99618.75
2023-04-30T18:02:47.804Z,99621.72
2023-04-30T18:05:19.130Z,99623.44
2023-04-30T18:08:02.445Z,99618.47
2023-04-30T18:10:52.015Z,99626.19
2023-04-30T18:13:47.109Z,99629.69
2023-04-30T18:16:37.026Z,99622.88
2023-04-30T18:19:28.751Z,99637.31
2023-04-30T18:22:16.877Z,99633.44
2023-04-30T18:25:08.953Z,99639.41
2023-04-30T18:27:41.305Z,99641.50
2023-04-30T18:30:24.224Z,99643.06
2023-04-30T18:32:59.541Z,99641.25
2023-04-30T18:35:51.333Z,99644.34
2023-04-30T18:38:42.448Z,99640.66
2023-04-30T18:41:34.841Z,99642.41
2023-04-30T18:44:35.280Z,99639.28
2023-04-30T18:47:47.197Z,99646.47
2023-04-30T18:51:04.575Z,99648.75
2023-04-30T18:53:59.216Z,99629.38
2023-04-30T18:57:16.510Z,99655.25
2023-04-30T18:59:49.874Z,99653.09
2023-04-30T19:02:31.000Z,99654.50
2023-04-30T19:05:14.622Z,99662.16
2023-04-30T19:08:16.224Z,99657.38
2023-04-30T19:10:58.977Z,99658.69
2023-04-30T19:13:38.613Z,99665.69
2023-04-30T19:16:10.897Z,99656.63
2023-04-30T19:19:01.142Z,99668.69
2023-04-30T19:21:56.904Z,99675.00
2023-04-30T19:24:37.683Z,99672.59
2023-04-30T19:27:10.274Z,99666.25
2023-04-30T19:29:43.614Z,99684.09
2023-04-30T19:32:17.324Z,99685.56
2023-04-30T19:35:20.803Z,99673.72
2023-04-30T19:38:04.174Z,99677.91
2023-04-30T19:41:08.852Z,99692.69
2023-04-30T19:43:43.945Z,99683.00
2023-04-30T19:46:21.346Z,99687.88
2023-04-30T19:48:59.060Z,99693.94
2023-04-30T19:51:58.558Z,99698.06
2023-04-30T19:54:30.359Z,99697.16
2023-04-30T19:57:20.369Z,99692.56
2023-04-30T20:00:18.384Z,99696.69
2023-04-30T20:03:25.018Z,99681.38
2023-04-30T20:06:04.925Z,99697.59
2023-04-30T20:08:42.397Z,99705.59
2023-04-30T20:11:12.963Z,99683.66
2023-04-30T20:14:03.147Z,99697.97
2023-04-30T20:16:37.782Z,99702.69
2023-04-30T20:19:31.576Z,99695.00
2023-04-30T20:22:14.383Z,99699.94
2023-04-30T20:24:51.001Z,99696.06
2023-04-30T20:27:32.711Z,99690.53
2023-04-30T20:30:36.488Z,99691.84
2023-04-30T20:33:20.340Z,99689.63
2023-04-30T20:36:12.864Z,99696.91
2023-04-30T20:38:46.358Z,99688.88
2023-04-30T20:41:53.510Z,99696.94
2023-04-30T20:44:31.089Z,99683.59
2023-04-30T20:48:02.023Z,99687.13
2023-04-30T20:50:41.627Z,99681.94
2023-04-30T20:53:18.565Z,99687.63
2023-04-30T20:55:58.923Z,99682.06
2023-04-30T20:58:43.860Z,99678.84
2023-04-30T21:01:24.152Z,99686.94
2023-04-30T21:04:12.249Z,99690.44
2023-04-30T21:07:06.336Z,99685.47
2023-04-30T21:09:59.088Z,99676.75
2023-04-30T21:12:51.185Z,99692.03
2023-04-30T21:15:32.624Z,99683.03
2023-04-30T21:18:16.894Z,99679.25
2023-04-30T21:21:11.861Z,99682.09
2023-04-30T21:23:53.721Z,99683.22
2023-04-30T21:26:25.807Z,99681.56
2023-04-30T21:28:57.146Z,99678.97
2023-04-30T21:31:28.330Z,99681.34
2023-04-30T21:34:17.328Z,99683.78
2023-04-30T21:36:53.457Z,99680.06
2023-04-30T21:39:28.847Z,99679.44
2023-04-30T21:42:27.896Z,99671.34
2023-04-30T21:45:31.033Z,99674.59
2023-04-30T21:48:13.311Z,99676.72
2023-04-30T21:50:54.033Z,99673.19
2023-04-30T21:54:03.672Z,99671.69
2023-04-30T21:56:53.252Z,99665.59
2023-04-30T21:59:25.899Z,99667.72
2023-04-30T22:02:16.543Z,99663.63
2023-04-30T22:04:54.005Z,99661.22
2023-04-30T22:07:35.189Z,99657.88
2023-04-30T22:10:45.590Z,99657.31
2023-04-30T22:13:17.355Z,99649.06
2023-04-30T22:15:48.967Z,99647.66
2023-04-30T22:18:47.469Z,99655.84
2023-04-30T22:21:58.309Z,99653.44
2023-04-30T22:24:47.432Z,99654.47
2023-04-30T22:28:13.247Z,99655.03
2023-04-30T22:30:53.650Z,99650.94
2023-04-30T22:33:31.207Z,99647.78
2023-04-30T22:36:03.262Z,99646.22
2023-04-30T22:38:44.112Z,99646.09
2023-04-30T22:41:21.360Z,99641.88
2023-04-30T22:44:05.813Z,99639.47
2023-04-30T22:46:53.433Z,99633.53
2023-04-30T22:49:40.966Z,99632.59
2023-04-30T22:52:28.076Z,99624.06
2023-04-30T22:55:08.534Z,99628.34
2023-04-30T22:57:43.051Z,99630.09
2023-04-30T23:00:23.766Z,99639.47
2023-04-30T23:03:30.877Z,99640.28
2023-04-30T23:06:12.683Z,99633.59
2023-04-30T23:08:52.065Z,99638.09
2023-04-30T23:11:48.407Z,99642.47
2023-04-30T23:14:37.852Z,99623.78
2023-04-30T23:17:45.646Z,99624.19
2023-04-30T23:20:22.993Z,99625.13
2023-04-30T23:23:12.230Z,99628.63
2023-04-30T23:25:59.943Z,99616.41
2023-04-30T23:28:58.568Z,99619.19
2023-04-30T23:31:40.896Z,99626.94
2023-04-30T23:34:39.016Z,99622.59
2023-04-30T23:37:14.155Z,99622.59
2023-04-30T23:39:45.637Z,99619.00
2023-04-30T23:42:27.824Z,99621.78
2023-04-30T23:45:12.742Z,99614.84
2023-04-30T23:47:47.208Z,99613.13
2023-04-30T23:50:35.506Z,99616.59
2023-04-30T23:53:18.496Z,99598.56
2023-04-30T23:55:55.995Z,99605.00
2023-04-30T23:58:36.949Z,99596.81
